Montréal / Saint-Hubert Airport

METAR CYHU TAF CYHU
-16 °C
°C
-
°C
56m
Alter
16:55:50
LT
15:55
UTC
0 ft

2.000

4.000

6.000

8.000

10.000

BKN 6.000
VFR
<?= Yii::t('app', 'Wind direction') ?> <?= Yii::t('app', 'of'); ?>
170°
16:59
Sonne unter
85%
Luftfeuchtigkeit
Windscherung
Geschlossen/Schnee
RWY-Sichtweite
RWY Zustand
Vert. Sichtweite
Min. Sichtbarkeit
CAVOK
Trend
Korrektur
Besonderer Bericht
30,26 inHg
QNH
METAR CYHU 011500Z AUTO 17004KT 090V180 9SM BKN060 M16/M18 A3026 RMK SLP250
Durchbrochene Wolken
3 kt
3 kt
10:00
VFR
3 kt
11:00
VFR
3 kt
12:00
VFR
8 kt
13:00
VFR
8 kt
14:00
VFR
8 kt
15:00
VFR
8 kt
16:00
VFR
10 kt
9 mi
Sichtweite
6.000 ft
Wolkendecke
4 kt
Wind
metar-taf.com/CYHU

Metar-Taf.com

Visueller Decoder

Wir und Dritte verfolgen dein Internetverhalten auf unserer Website mit Cookies. Wenn du fortfährst, gehen wir davon aus, dass du mit unserer Cookie-Richtlinie einverstanden bist.